Impacts METAR Board
IDs:

KLAS - Las Vegas/McCarran I, NV, US

Updated at: 0100 UTC 25 May 2018
Potential Impact None Slight Moderate High
Time 24/13Z 24/14Z 24/15Z 24/16Z 24/17Z 24/18Z 24/19Z 24/20Z 24/21Z 24/22Z 24/23Z 25/00Z 25/01Z
Temp71 72 77 79 83 85 88 89 90 91 92 92 91
Dewpt36 37 37 37 37 36 36 36 34 33 32 33 30
Altim29.95 29.97 30.00 30.01 30.00 30.00 29.98 29.95 29.93 29.91 29.89 29.87 29.85
VIS10 10 10 10 10 10 10 10 10 10 10 10 10
CIG-- -- -- -- -- -- -- -- -- -- -- -- --
CoverCLRCLRCLRCLRCLRCLRCLRCLRCLRCLRFEWFEWFEW
FltCatVFRVFRVFRVFRVFRVFRVFRVFRVFRVFRVFRVFRVFR
WX--------------------------
WDir029010000100140120140160150140
WSpd0 3 3 0 3 3 11 10 5 8 11 12 8
WGst-- -- -- -- -- 15 18 16 -- -- 15 18 --
Raw hourly METARs
KLAS 241256Z 00000KT 10SM CLR 22/02 A2995 RMK AO2 SLP119 T02170022
KLAS 241356Z 29003KT 10SM CLR 22/03 A2997 RMK AO2 SLP127 T02220028
KLAS 241456Z 01003KT 10SM CLR 25/03 A3000 RMK AO2 SLP133 T02500028 53020
KLAS 241556Z 00000KT 10SM CLR 26/03 A3001 RMK AO2 SLP137 T02610028
KLAS 241656Z VRB03KT 10SM CLR 28/03 A3000 RMK AO2 SLP135 T02830028
KLAS 241759Z VRB03G15KT 10SM CLR 29/02 A3000 RMK AO2 T02940022
KLAS 241856Z 10011G18KT 10SM CLR 31/02 A2998 RMK AO2 SLP127 T03110022
KLAS 241956Z 14010G16KT 10SM CLR 32/02 A2995 RMK AO2 SLP118 T03170022
KLAS 242056Z 12005KT 10SM CLR 32/01 A2993 RMK AO2 SLP111 T03220011 58021
KLAS 242156Z 14008KT 10SM CLR 33/01 A2991 RMK AO2 SLP105 T03280006
KLAS 242256Z 16011G15KT 10SM FEW120 33/00 A2989 RMK AO2 SLP097 T03330000
KLAS 242356Z 15012G18KT 10SM FEW120 33/01 A2987 RMK AO2 SLP090 T03330006 10339 20294 57020
KLAS 250056Z 14008KT 10SM FEW120 33/M01 A2985 RMK AO2 SLP085 T03281011



Page loaded:  01:18 UTC  |   06:18 PM Pacific  |   07:18 PM Mountain  |   08:18 PM Central  |   09:18 PM Eastern

 

ADVISORIES

FORECASTS

FORECASTS

OBSERVATIONS

USER TOOLS

ABOUT US